Time;durP1;ratioP1;P1;durP2;ratioP2;P2;SDS_P1;SDS_P2;PMS_P1;PMS_P2;Temp;Humidity;BMP_temperature;BMP_pressure;BME280_temperature;BME280_humidity;BME280_pressure;Samples;Min_cycle;Max_cycle;Signal;HPM_P1;HPM_P2
2021/06/26 00:00:21;;;;;;;14.23;11.35;;;16.20;99.90;;;;;;6121402;23;19936;-87
2021/06/26 00:03:17;;;;;;;14.88;11.75;;;16.20;99.90;;;;;;6095254;23;20006;-85
2021/06/26 00:06:03;;;;;;;15.07;11.95;;;16.20;99.90;;;;;;6087343;23;20454;-86
2021/06/26 00:09:25;;;;;;;;;;;;;;;;;;;;;
2021/06/26 00:11:56;;;;;;;13.15;10.70;;;16.20;99.90;;;;;;6012341;23;20561;-85
2021/06/26 00:14:30;;;;;;;15.07;10.93;;;16.10;99.90;;;;;;6119547;23;20085;-86
2021/06/26 00:17:01;;;;;;;15.65;11.93;;;16.10;99.90;;;;;;6119401;23;20013;-87
2021/06/26 00:19:32;;;;;;;14.88;11.93;;;16.10;99.90;;;;;;6092734;23;20045;-85
2021/06/26 00:22:03;;;;;;;14.82;12.10;;;16.00;99.90;;;;;;6093537;23;20030;-86
2021/06/26 00:24:49;;;;;;;;;;;;;;;;;;;;;
2021/06/26 00:27:15;;;;;;;15.43;12.32;;;16.00;99.90;;;;;;6119764;23;20085;-85
2021/06/26 00:29:50;;;;;;;17.10;12.10;;;15.90;99.90;;;;;;6093276;23;20041;-86
2021/06/26 00:32:17;;;;;;;15.85;12.45;;;15.90;99.90;;;;;;6119203;23;20431;-86
2021/06/26 00:34:44;;;;;;;16.23;13.00;;;15.90;99.90;;;;;;6092479;23;20006;-85
2021/06/26 00:37:23;;;;;;;13.82;11.73;;;15.90;99.90;;;;;;6093309;23;20033;-86
2021/06/26 00:39:52;;;;;;;15.10;12.45;;;15.90;99.90;;;;;;6068793;23;20045;-86
2021/06/26 00:42:29;;;;;;;16.15;12.95;;;15.90;99.90;;;;;;6119145;23;20009;-86
2021/06/26 00:45:09;;;;;;;;;;;;;;;;;;;;;
2021/06/26 00:47:46;;;;;;;;;;;;;;;;;;;;;
2021/06/26 00:50:34;;;;;;;18.00;13.35;;;15.80;99.90;;;;;;6132945;23;20025;-85
2021/06/26 00:53:22;;;;;;;14.30;11.85;;;15.80;99.90;;;;;;6120009;23;20029;-87
2021/06/26 00:56:28;;;;;;;15.38;12.60;;;15.70;99.90;;;;;;6073528;23;20079;-87
2021/06/26 00:58:59;;;;;;;13.88;11.80;;;15.70;99.90;;;;;;6117181;23;20101;-86
2021/06/26 01:01:26;;;;;;;16.02;13.27;;;15.70;99.90;;;;;;6093623;23;20006;-86
2021/06/26 01:03:57;;;;;;;16.00;12.57;;;15.60;99.90;;;;;;6119725;23;20085;-85
2021/06/26 01:06:42;;;;;;;15.48;12.15;;;15.60;99.90;;;;;;6091773;23;20407;-85
2021/06/26 01:09:25;;;;;;;;;;;;;;;;;;;;;
2021/06/26 01:11:59;;;;;;;16.45;12.55;;;15.60;99.90;;;;;;6120661;23;20510;-86
2021/06/26 01:15:00;;;;;;;15.68;12.30;;;15.60;99.90;;;;;;6071646;23;20014;-86
2021/06/26 01:17:32;;;;;;;15.60;12.02;;;15.50;99.90;;;;;;6119818;23;20016;-86
2021/06/26 01:20:00;;;;;;;15.90;11.95;;;15.50;99.90;;;;;;6095102;23;20021;-86
2021/06/26 01:22:33;;;;;;;15.27;11.93;;;15.50;99.90;;;;;;6094962;23;20006;-86
2021/06/26 01:25:06;;;;;;;;;;;15.50;99.90;;;;;;6095300;23;20068;-86
2021/06/26 01:27:41;;;;;;;13.35;10.63;;;15.40;99.90;;;;;;6097037;23;19924;-86
2021/06/26 01:30:08;;;;;;;16.55;12.20;;;15.40;99.90;;;;;;6138607;23;20032;-87
2021/06/26 01:32:36;;;;;;;16.17;12.57;;;15.40;99.90;;;;;;6106038;23;20371;-86
2021/06/26 01:35:21;;;;;;;15.15;11.73;;;15.40;99.90;;;;;;6123199;23;20045;-86
2021/06/26 01:38:09;;;;;;;;;;;;;;;;;;;;;
2021/06/26 01:40:48;;;;;;;16.92;12.60;;;15.40;99.90;;;;;;6128085;23;20085;-86
2021/06/26 01:43:45;;;;;;;16.67;13.27;;;15.40;99.90;;;;;;6128325;23;20356;-87
2021/06/26 01:46:43;;;;;;;17.30;13.05;;;15.40;99.90;;;;;;6102848;23;20001;-86
2021/06/26 01:49:40;;;;;;;16.20;13.10;;;15.30;99.90;;;;;;6125080;23;20016;-85
2021/06/26 01:52:16;;;;;;;15.43;12.50;;;15.30;99.90;;;;;;6104240;23;20073;-85
2021/06/26 01:54:47;;;;;;;16.38;12.90;;;15.30;99.90;;;;;;6100061;23;20010;-85
2021/06/26 01:57:18;;;;;;;17.50;13.65;;;15.30;99.90;;;;;;6100609;23;20458;-85
2021/06/26 01:59:53;;;;;;;16.92;13.48;;;15.30;99.90;;;;;;6127457;23;20018;-85
2021/06/26 02:05:16;;;;;;;17.52;13.63;;;15.20;99.90;;;;;;6128196;23;20018;-85
2021/06/26 02:07:58;;;;;;;17.17;12.77;;;15.30;99.90;;;;;;6128204;23;20060;-85
2021/06/26 02:10:24;;;;;;;19.92;14.18;;;15.30;99.90;;;;;;6102211;23;20002;-85
2021/06/26 02:13:09;;;;;;;16.40;13.60;;;15.20;99.90;;;;;;6101177;23;20022;-85
2021/06/26 02:15:57;;;;;;;;;;;;;;;;;;;;;
2021/06/26 02:18:35;;;;;;;15.45;12.88;;;15.20;99.90;;;;;;6127993;23;20510;-85
2021/06/26 02:21:08;;;;;;;16.60;13.25;;;15.20;99.90;;;;;;6127757;23;20005;-85
2021/06/26 02:23:50;;;;;;;17.35;13.23;;;15.20;99.90;;;;;;6102288;23;20006;-85
2021/06/26 02:26:39;;;;;;;15.32;12.68;;;15.20;99.90;;;;;;6101990;23;20097;-84
2021/06/26 02:29:34;;;;;;;;;;;;;;;;;;;;;
2021/06/26 02:32:14;;;;;;;17.88;13.30;;;15.10;99.90;;;;;;6122210;23;20101;-85
2021/06/26 02:34:43;;;;;;;16.38;13.15;;;15.00;99.90;;;;;;6137035;23;20026;-85
2021/06/26 02:37:14;;;;;;;18.60;13.98;;;15.00;99.90;;;;;;6096693;23;20099;-86
2021/06/26 02:39:45;;;;;;;17.13;13.15;;;15.00;99.90;;;;;;6102721;23;20018;-85
2021/06/26 02:42:12;;;;;;;16.27;13.02;;;15.00;99.90;;;;;;6103420;23;20081;-85
2021/06/26 02:45:15;;;;;;;17.48;13.23;;;14.90;99.90;;;;;;6128359;23;20002;-85
2021/06/26 02:47:42;;;;;;;18.02;13.23;;;15.00;99.90;;;;;;6083218;23;20062;-85
2021/06/26 02:50:13;;;;;;;17.63;13.30;;;14.90;99.90;;;;;;6100889;23;20014;-85
2021/06/26 02:52:50;;;;;;;;;;;;;;;;;;;;;
2021/06/26 02:55:22;;;;;;;16.23;13.25;;;14.90;99.90;;;;;;6119187;23;20089;-85
2021/06/26 02:57:50;;;;;;;17.60;13.27;;;15.00;99.90;;;;;;6101563;23;20389;-84
2021/06/26 03:00:52;;;;;;;16.90;13.23;;;15.00;99.90;;;;;;6105879;23;20008;-84
2021/06/26 03:06:11;;;;;;;17.83;13.48;;;15.10;99.90;;;;;;6127803;23;20013;-85
2021/06/26 03:08:37;;;;;;;;;;;15.10;99.90;;;;;;6127990;23;20479;-86
2021/06/26 03:11:12;;;;;;;14.95;11.68;;;15.10;99.90;;;;;;6101543;23;19995;-84
2021/06/26 03:14:23;;;;;;;16.90;12.43;;;15.10;99.90;;;;;;6127400;23;20072;-84
2021/06/26 03:17:11;;;;;;;16.95;12.88;;;15.20;99.90;;;;;;6126782;23;20416;-85
2021/06/26 03:19:52;;;;;;;;;;;;;;;;;;;;;
2021/06/26 03:22:23;;;;;;;16.52;12.95;;;15.20;99.90;;;;;;6127899;23;20092;-85
2021/06/26 03:24:53;;;;;;;17.42;13.25;;;15.30;99.90;;;;;;6077216;23;20498;-85
2021/06/26 03:27:31;;;;;;;;;;;;;;;;;;;;;
2021/06/26 03:30:08;;;;;;;17.17;12.98;;;15.30;99.90;;;;;;6104705;23;20094;-85
2021/06/26 03:32:55;;;;;;;17.20;13.75;;;15.40;99.90;;;;;;6127718;23;20026;-85
2021/06/26 03:35:31;;;;;;;18.02;13.85;;;15.40;99.90;;;;;;6136097;23;20332;-85
2021/06/26 03:38:02;;;;;;;17.88;13.55;;;15.50;99.90;;;;;;6118740;23;20443;-85
2021/06/26 03:41:01;;;;;;;18.73;14.00;;;15.50;99.90;;;;;;6127107;23;20009;-85
2021/06/26 03:43:56;;;;;;;18.73;14.20;;;15.60;99.90;;;;;;6127441;23;20057;-85
2021/06/26 03:46:37;;;;;;;;;;;;;;;;;;;;;
2021/06/26 03:49:32;;;;;;;;;;;;;;;;;;;;;
2021/06/26 03:52:04;;;;;;;18.58;14.73;;;15.70;99.90;;;;;;6127374;23;20069;-85
2021/06/26 03:55:19;;;;;;;18.80;14.57;;;15.70;99.90;;;;;;6101469;23;20450;-84
2021/06/26 03:58:05;;;;;;;17.48;13.85;;;15.80;99.90;;;;;;6114301;23;20230;-85
2021/06/26 04:00:53;;;;;;;18.15;13.27;;;15.80;99.90;;;;;;6101272;23;20002;-85
2021/06/26 04:03:46;;;;;;;18.65;14.05;;;15.90;99.90;;;;;;6094967;23;20002;-85
2021/06/26 04:06:16;;;;;;;19.13;13.35;;;15.90;99.90;;;;;;6124330;23;20006;-85
2021/06/26 04:08:44;;;;;;;;;;;16.00;99.90;;;;;;6101750;23;20080;-84
2021/06/26 04:11:30;;;;;;;17.33;13.80;;;15.90;99.90;;;;;;6101167;23;20229;-84
2021/06/26 04:14:21;;;;;;;16.75;12.90;;;16.00;99.90;;;;;;6127339;23;20292;-84
2021/06/26 04:16:50;;;;;;;18.63;13.88;;;16.10;99.90;;;;;;6092622;23;20356;-85
2021/06/26 04:19:20;;;;;;;17.10;13.48;;;16.10;99.90;;;;;;6101112;23;20014;-84
2021/06/26 04:21:52;;;;;;;18.15;14.23;;;16.20;99.90;;;;;;6102212;23;20335;-84
2021/06/26 04:24:20;;;;;;;18.75;14.77;;;16.20;99.90;;;;;;6110749;23;20005;-85
2021/06/26 04:26:46;;;;;;;19.60;14.43;;;16.20;99.90;;;;;;6100817;23;20010;-85
2021/06/26 04:29:24;;;;;;;;;;;;;;;;;;;;;
2021/06/26 04:32:03;;;;;;;19.15;14.60;;;16.30;99.90;;;;;;6127486;23;20081;-85
2021/06/26 04:34:34;;;;;;;19.80;15.20;;;16.30;99.90;;;;;;6101682;23;20009;-85
2021/06/26 04:37:06;;;;;;;20.25;14.77;;;16.30;99.90;;;;;;6101854;23;20006;-85
2021/06/26 04:39:32;;;;;;;19.80;15.30;;;16.20;99.90;;;;;;6102460;23;20089;-85
2021/06/26 04:42:01;;;;;;;21.45;15.52;;;16.30;99.90;;;;;;6100951;23;20029;-84
2021/06/26 04:44:35;;;;;;;21.42;15.32;;;16.30;99.90;;;;;;6101489;23;20029;-85
2021/06/26 04:47:14;;;;;;;;;;;;;;;;;;;;;
2021/06/26 04:49:50;;;;;;;;;;;;;;;;;;;;;
2021/06/26 04:52:18;;;;;;;22.17;16.30;;;16.40;99.90;;;;;;6126528;23;20077;-84
2021/06/26 04:54:52;;;;;;;22.17;15.90;;;16.40;99.90;;;;;;6126520;23;20471;-84
2021/06/26 04:57:29;;;;;;;22.17;16.20;;;16.50;99.90;;;;;;6078405;23;20010;-85
2021/06/26 05:00:05;;;;;;;;;;;;;;;;;;;;;
2021/06/26 05:02:33;;;;;;;22.52;17.08;;;16.60;99.90;;;;;;6128803;23;20073;-85
2021/06/26 05:05:08;;;;;;;;;;;;;;;;;;;;;
2021/06/26 05:07:37;;;;;;;20.85;14.68;;;16.70;99.90;;;;;;6104972;23;20081;-84
2021/06/26 05:10:11;;;;;;;20.08;15.02;;;16.80;99.90;;;;;;6079621;23;20049;-84
2021/06/26 05:12:47;;;;;;;22.48;16.92;;;16.80;99.90;;;;;;6127931;23;20422;-85
2021/06/26 05:15:17;;;;;;;20.27;15.95;;;16.90;99.90;;;;;;6101977;23;20474;-84
2021/06/26 05:18:10;;;;;;;19.77;14.85;;;16.90;99.90;;;;;;6128652;23;20349;-84
2021/06/26 05:20:44;;;;;;;21.92;15.05;;;16.90;99.90;;;;;;6082167;23;20080;-85
2021/06/26 05:23:15;;;;;;;20.65;15.00;;;17.00;99.90;;;;;;6104563;23;20179;-85
2021/06/26 05:26:11;;;;;;;19.13;14.63;;;17.10;99.90;;;;;;6102994;23;20006;-86
2021/06/26 05:28:54;;;;;;;20.40;14.40;;;17.10;99.90;;;;;;6127720;23;20041;-85
2021/06/26 05:31:26;;;;;;;19.45;14.30;;;17.20;99.90;;;;;;6102616;23;19998;-85
2021/06/26 05:33:57;;;;;;;19.63;15.25;;;17.10;99.90;;;;;;6128173;23;20002;-85
2021/06/26 05:36:25;;;;;;;18.02;13.95;;;17.10;99.90;;;;;;6128188;23;20505;-85
2021/06/26 05:38:53;;;;;;;18.25;14.35;;;17.20;99.90;;;;;;6078006;23;20014;-85
2021/06/26 05:41:32;;;;;;;21.10;15.60;;;17.20;99.90;;;;;;6114354;23;19986;-85
2021/06/26 05:44:08;;;;;;;19.58;14.40;;;17.20;99.90;;;;;;6138852;23;20005;-85
2021/06/26 05:47:11;;;;;;;17.80;13.02;;;17.20;99.90;;;;;;6128110;23;20065;-84
2021/06/26 05:49:54;;;;;;;;;;;;;;;;;;;;;
2021/06/26 05:52:20;;;;;;;;;;;17.30;99.90;;;;;;6128785;23;20085;-84
2021/06/26 05:54:54;;;;;;;15.93;12.40;;;17.30;99.90;;;;;;6102333;23;20294;-85
2021/06/26 05:57:32;;;;;;;17.60;12.68;;;17.30;99.90;;;;;;6128064;23;20076;-85
2021/06/26 06:00:11;;;;;;;19.63;13.95;;;17.30;99.90;;;;;;6122837;23;20018;-84
2021/06/26 06:03:02;;;;;;;17.90;13.50;;;17.30;99.90;;;;;;6125777;23;20040;-85
2021/06/26 06:05:43;;;;;;;;;;;;;;;;;;;;;
2021/06/26 06:08:20;;;;;;;19.63;15.00;;;17.40;99.90;;;;;;6136354;23;20040;-84
2021/06/26 06:11:19;;;;;;;21.02;15.77;;;17.50;99.90;;;;;;6137823;23;20061;-84
2021/06/26 06:14:15;;;;;;;22.08;16.40;;;17.50;99.90;;;;;;6136786;23;20024;-85
2021/06/26 06:17:19;;;;;;;20.90;15.73;;;17.50;99.90;;;;;;6127438;23;20039;-84
2021/06/26 06:19:47;;;;;;;20.13;14.82;;;17.60;99.90;;;;;;6062851;23;20119;-85
2021/06/26 06:22:43;;;;;;;;;;;;;;;;;;;;;
2021/06/26 06:25:58;;;;;;;23.35;17.38;;;17.70;99.90;;;;;;6104075;23;20073;-85
2021/06/26 06:28:48;;;;;;;19.98;15.40;;;17.70;99.90;;;;;;6126729;23;20089;-85
2021/06/26 06:31:42;;;;;;;20.88;15.77;;;17.80;99.90;;;;;;6104094;23;20439;-84
2021/06/26 06:34:16;;;;;;;20.70;15.85;;;18.00;99.90;;;;;;6101844;23;20006;-84
2021/06/26 06:36:41;;;;;;;20.13;16.17;;;18.10;99.90;;;;;;6101977;23;20088;-84
2021/06/26 06:39:19;;;;;;;19.63;16.52;;;18.20;99.90;;;;;;6101366;23;20042;-86
2021/06/26 06:41:59;;;;;;;;;;;;;;;;;;;;;
2021/06/26 06:44:32;;;;;;;21.45;16.02;;;18.40;99.90;;;;;;6127878;23;20463;-86
2021/06/26 06:47:11;;;;;;;;;;;;;;;;;;;;;
2021/06/26 06:49:51;;;;;;;23.55;17.83;;;18.40;99.90;;;;;;6127566;23;20085;-85
2021/06/26 06:52:59;;;;;;;20.88;15.80;;;18.40;99.90;;;;;;6101822;23;20380;-84
2021/06/26 06:55:30;;;;;;;20.92;16.05;;;18.40;99.90;;;;;;6072608;23;20335;-85
2021/06/26 06:58:47;;;;;;;;;;;;;;;;;;;;;
2021/06/26 07:01:29;;;;;;;;;;;;;;;;;;;;;
2021/06/26 07:04:37;;;;;;;;;;;;;;;;;;;;;
2021/06/26 07:07:19;;;;;;;21.50;14.57;;;18.50;99.90;;;;;;6127953;23;20088;-84
2021/06/26 07:09:55;;;;;;;19.85;15.13;;;18.50;99.90;;;;;;6127268;23;20423;-84
2021/06/26 07:16:30;;;;;;;18.90;15.07;;;18.60;99.90;;;;;;6051631;23;20006;-84
2021/06/26 07:19:48;;;;;;;;;;;;;;;;;;;;;
2021/06/26 07:22:57;;;;;;;;;;;;;;;;;;;;;
2021/06/26 07:25:22;;;;;;;;;;;;;;;;;;;;;
2021/06/26 07:28:05;;;;;;;17.75;14.35;;;19.00;99.90;;;;;;6127415;23;20471;-84
2021/06/26 07:30:38;;;;;;;16.25;14.30;;;19.00;99.90;;;;;;6101112;23;20093;-84
2021/06/26 07:33:11;;;;;;;16.23;12.90;;;19.10;99.90;;;;;;6101500;23;20395;-84
2021/06/26 07:39:40;;;;;;;15.15;11.70;;;19.20;99.90;;;;;;6101799;23;20068;-84
2021/06/26 07:42:16;;;;;;;12.95;10.05;;;19.20;99.90;;;;;;6101681;23;20002;-84
2021/06/26 07:49:10;;;;;;;;;;;;;;;;;;;;;
2021/06/26 07:52:10;;;;;;;13.82;11.23;;;19.50;99.90;;;;;;6096813;23;20085;-84
2021/06/26 07:55:33;;;;;;;13.18;10.00;;;19.60;99.90;;;;;;6099036;23;20002;-84
2021/06/26 08:01:34;;;;;;;;;;;;;;;;;;;;;
2021/06/26 08:07:35;;;;;;;;;;;;;;;;;;;;;
2021/06/26 08:13:57;;;;;;;;;;;;;;;;;;;;;
2021/06/26 08:38:21;;;;;;;18.25;15.13;;;20.90;99.90;;;;;;5928006;24;20106;-85
2021/06/26 08:45:50;;;;;;;;;;;;;;;;;;;;;
2021/06/26 08:52:42;;;;;;;;;;;;;;;;;;;;;
2021/06/26 08:56:02;;;;;;;;;;;;;;;;;;;;;
2021/06/26 09:03:02;;;;;;;11.93;10.18;;;21.80;99.90;;;;;;5926905;24;20061;-85
2021/06/26 09:06:47;;;;;;;;;;;;;;;;;;;;;
2021/06/26 09:10:01;;;;;;;;;;;;;;;;;;;;;
2021/06/26 09:13:15;;;;;;;;;;;;;;;;;;;;;
2021/06/26 09:34:41;;;;;;;11.25;9.65;;;23.30;99.90;;;;;;5064648;27;2271419;-87
2021/06/26 09:37:50;;;;;;;12.52;9.98;;;23.90;99.90;;;;;;5104409;28;20029;-85
2021/06/26 09:41:22;;;;;;;9.50;8.50;;;25.10;99.90;;;;;;5123182;28;20024;-86
2021/06/26 09:44:43;;;;;;;9.80;7.90;;;26.30;99.90;;;;;;5101204;28;20569;-88
2021/06/26 10:20:39;;;;;;;6.80;6.10;;;30.10;93.60;;;;;;5060257;28;20079;-90
2021/06/26 10:23:14;;;;;;;7.95;5.82;;;30.60;93.20;;;;;;5221419;22;20048;-90
2021/06/26 10:26:00;;;;;;;9.05;7.07;;;31.00;92.40;;;;;;5083038;28;20103;-91
2021/06/26 10:49:38;;;;;;;7.20;6.18;;;29.80;87.40;;;;;;4587387;22;20060;-91
2021/06/26 10:52:30;;;;;;;8.55;7.63;;;30.10;86.70;;;;;;5022470;28;20034;-93
2021/06/26 10:55:07;;;;;;;7.32;6.63;;;30.20;83.90;;;;;;5018588;28;20037;-93
2021/06/26 10:57:54;;;;;;;10.57;8.25;;;30.40;84.20;;;;;;5019790;28;20029;-93
2021/06/26 11:00:53;;;;;;;;;;;;;;;;;;;;;
2021/06/26 12:18:32;;;;;;;7.38;5.40;;;33.70;68.10;;;;;;4720419;30;20505;-92
2021/06/26 12:24:54;;;;;;;6.97;5.28;;;34.50;65.20;;;;;;4714229;30;20401;-94
2021/06/26 12:27:21;;;;;;;6.07;4.90;;;34.20;65.10;;;;;;4708413;30;20041;-93
2021/06/26 12:30:19;;;;;;;;;;;;;;;;;;;;;
2021/06/26 12:33:04;;;;;;;8.50;7.03;;;33.60;64.80;;;;;;4720054;30;20049;-91
2021/06/26 12:35:30;;;;;;;8.15;7.35;;;32.90;64.40;;;;;;4717988;30;20488;-90
2021/06/26 12:37:56;;;;;;;7.13;6.43;;;32.00;65.20;;;;;;4718435;30;20061;-91
2021/06/26 12:40:30;;;;;;;6.72;6.03;;;31.40;66.70;;;;;;4718392;30;20029;-92
2021/06/26 13:52:49;;;;;;;6.95;6.25;;;29.90;71.00;;;;;;5683030;24;20727;31
2021/06/26 15:58:57;;;;;;;9.10;6.72;;;28.90;69.90;;;;;;4529257;24;20346;31
2021/06/26 19:50:15;;;;;;;6.82;6.05;;;23.80;80.40;;;;;;4741539;30;20053;-90
2021/06/26 20:24:42;;;;;;;6.95;6.25;;;22.80;84.90;;;;;;4759631;24;20064;-89
2021/06/26 20:27:47;;;;;;;6.75;6.05;;;22.70;85.30;;;;;;4725960;30;20048;-89
2021/06/26 20:42:21;;;;;;;8.27;6.63;;;22.20;87.40;;;;;;3117000;24;20365;-93
2021/06/26 20:45:25;;;;;;;7.20;6.18;;;22.20;87.70;;;;;;4742912;30;20099;-90
2021/06/26 20:48:51;;;;;;;7.72;6.88;;;22.10;88.00;;;;;;4744279;30;20039;-89
2021/06/26 21:41:28;;;;;;;9.82;8.82;;;21.10;91.90;;;;;;1225668;24;20353;31
2021/06/26 21:43:56;;;;;;;10.90;9.55;;;21.10;92.10;;;;;;4702179;30;20059;-90
2021/06/26 21:46:23;;;;;;;10.60;9.55;;;21.10;92.30;;;;;;4718440;30;20072;-91
2021/06/26 21:48:51;;;;;;;10.45;9.35;;;21.00;92.50;;;;;;4718179;30;20033;-92
2021/06/26 21:56:25;;;;;;;10.90;9.80;;;21.00;92.80;;;;;;4741523;30;20052;-88
2021/06/26 22:28:48;;;;;;;;;;;;;;;;;;;;;
2021/06/26 22:39:03;;;;;;;11.85;10.02;;;21.00;94.70;;;;;;4642860;30;20058;-89
2021/06/26 22:42:01;;;;;;;11.50;9.90;;;21.00;94.80;;;;;;4661368;30;20046;-88
2021/06/26 22:44:57;;;;;;;;;;;;;;;;;;;;;
2021/06/26 22:47:38;;;;;;;12.20;10.90;;;21.10;95.10;;;;;;4660455;30;20038;-89
2021/06/26 22:51:07;;;;;;;12.55;10.93;;;21.00;95.20;;;;;;4726963;30;20402;-87
2021/06/26 22:54:08;;;;;;;;;;;;;;;;;;;;;
2021/06/26 22:57:23;;;;;;;12.57;11.27;;;21.00;95.50;;;;;;4723118;30;20049;-89
2021/06/26 23:03:54;;;;;;;;;;;;;;;;;;;;;
2021/06/26 23:06:53;;;;;;;;;;;;;;;;;;;;;
2021/06/26 23:13:12;;;;;;;13.32;11.95;;;20.70;96.40;;;;;;4713992;30;20053;-87
2021/06/26 23:15:51;;;;;;;;;;;;;;;;;;;;;
2021/06/26 23:18:28;;;;;;;;;;;;;;;;;;;;;
2021/06/26 23:20:59;;;;;;;13.63;12.23;;;20.60;97.20;;;;;;4727977;30;20073;-88
2021/06/26 23:23:45;;;;;;;;;;;;;;;;;;;;;
2021/06/26 23:27:03;;;;;;;;;;;;;;;;;;;;;
2021/06/26 23:29:48;;;;;;;;;;;;;;;;;;;;;
2021/06/26 23:32:48;;;;;;;;;;;;;;;;;;;;;
2021/06/26 23:35:29;;;;;;;12.88;11.30;;;20.50;97.60;;;;;;4733838;30;20055;-88
2021/06/26 23:38:11;;;;;;;;;;;;;;;;;;;;;
2021/06/26 23:41:00;;;;;;;12.88;11.57;;;20.50;98.00;;;;;;4734320;30;20028;-87
2021/06/26 23:43:31;;;;;;;12.82;11.50;;;20.40;98.10;;;;;;4724678;30;20037;-86
2021/06/26 23:46:09;;;;;;;13.15;11.75;;;20.50;98.30;;;;;;4744858;30;20129;-87
2021/06/26 23:48:46;;;;;;;;;;;;;;;;;;;;;
2021/06/26 23:51:12;;;;;;;13.25;11.88;;;20.40;98.40;;;;;;4714381;30;20492;-88
2021/06/26 23:53:59;;;;;;;13.82;12.32;;;20.40;98.60;;;;;;4731207;30;20039;-87
2021/06/26 23:56:52;;;;;;;13.82;11.55;;;20.40;98.60;;;;;;4732645;30;20464;-88
2021/06/26 23:59:23;;;;;;;;;;;20.40;98.60;;;;;;4738848;30;20084;-88
